Time;durP1;ratioP1;P1;durP2;ratioP2;P2;SDS_P1;SDS_P2;PMS_P1;PMS_P2;Temp;Humidity;BMP_temperature;BMP_pressure;BME280_temperature;BME280_humidity;BME280_pressure;Samples;Min_cycle;Max_cycle;Signal;HPM_P1;HPM_P2
2023/01/27 00:00:14;;;;;;;;;;;;;;;4.21;100.00;102386.13;5036010;28;19928;-60
2023/01/27 00:02:40;;;;;;;;;;;;;;;4.12;100.00;102393.34;5047498;28;19967;-64
2023/01/27 00:05:05;;;;;;;;;;;;;;;4.11;100.00;102394.34;5047036;28;19964;-61
2023/01/27 00:07:31;;;;;;;;;;;;;;;4.12;100.00;102402.34;5046730;28;19968;-61
2023/01/27 00:09:56;;;;;;;;;;;;;;;4.08;100.00;102386.50;5039052;28;19917;-61
2023/01/27 00:15:07;;;;;;;;;;;;;;;4.03;100.00;102384.22;5047826;28;20405;-61
2023/01/27 00:17:33;;;;;;;;;;;;;;;4.03;100.00;102395.09;5047437;28;19916;-61
2023/01/27 00:19:58;;;;;;;;;;;;;;;4.02;100.00;102390.66;5046619;28;19920;-60
2023/01/27 00:25:07;;;;;;;;;;;;;;;3.98;100.00;102383.81;5029744;28;19925;-61
2023/01/27 00:27:32;;;;;;;;;;;;;;;3.97;100.00;102389.41;5027835;28;19921;-61
2023/01/27 00:29:57;;;;;;;;;;;;;;;3.95;100.00;102394.97;5034363;28;19925;-62
2023/01/27 00:35:07;;;;;;;;;;;;;;;3.89;100.00;102392.84;5037875;28;19928;-61
2023/01/27 00:37:32;;;;;;;;;;;;;;;3.88;100.00;102400.16;5051072;28;19917;-60
2023/01/27 00:39:57;;;;;;;;;;;;;;;3.89;100.00;102399.16;5050298;28;20508;-64
2023/01/27 00:42:22;;;;;;;;;;;;;;;3.87;100.00;102395.72;5049768;28;19928;-62
2023/01/27 00:47:32;;;;;;;;;;;;;;;3.94;100.00;102401.41;5031081;28;19923;-61
2023/01/27 00:49:58;;;;;;;;;;;;;;;3.89;100.00;102407.31;5039731;28;19917;-61
2023/01/27 00:52:23;;;;;;;;;;;;;;;3.85;100.00;102402.31;5046856;28;20429;-61
2023/01/27 00:54:48;;;;;;;;;;;;;;;3.84;100.00;102403.31;5049010;28;19924;-61
2023/01/27 00:57:13;;;;;;;;;;;;;;;3.82;100.00;102411.63;5042377;28;19920;-64
2023/01/27 00:59:38;;;;;;;;;;;;;;;3.80;100.00;102410.03;5038196;28;19921;-62
2023/01/27 01:02:04;;;;;;;;;;;;;;;3.79;100.00;102406.47;5043377;28;20042;-61
2023/01/27 01:04:29;;;;;;;;;;;;;;;3.77;100.00;102400.34;5029208;28;19927;-61
2023/01/27 01:06:54;;;;;;;;;;;;;;;3.80;100.00;102397.34;5043255;28;20467;-61
2023/01/27 01:09:19;;;;;;;;;;;;;;;3.76;100.00;102405.94;5050504;28;19971;-62
2023/01/27 01:11:44;;;;;;;;;;;;;;;3.75;100.00;102407.81;5049122;28;19948;-61
2023/01/27 01:14:09;;;;;;;;;;;;;;;3.74;100.00;102402.50;5045898;28;20364;-61
2023/01/27 01:16:35;;;;;;;;;;;;;;;3.73;100.00;102404.34;5039303;28;19925;-61
2023/01/27 01:19:00;;;;;;;;;;;;;;;3.74;100.00;102416.09;5029031;28;19921;-61
2023/01/27 01:21:25;;;;;;;;;;;;;;;4.02;100.00;102419.72;5046087;28;19925;-61
2023/01/27 01:23:50;;;;;;;;;;;;;;;4.30;100.00;102420.56;5049912;28;20659;-61
2023/01/27 01:26:16;;;;;;;;;;;;;;;3.80;100.00;102415.47;5048381;28;19920;-61
2023/01/27 01:28:42;;;;;;;;;;;;;;;3.76;100.00;102420.38;5030168;28;19921;-61
2023/01/27 01:31:10;;;;;;;;;;;;;;;3.72;100.00;102431.69;5031175;28;19921;-61
2023/01/27 01:33:36;;;;;;;;;;;;;;;3.70;100.00;102418.25;5043092;28;19977;-62
2023/01/27 01:36:09;;;;;;;;;;;;;;;3.81;100.00;102418.06;5029651;28;20344;-61
2023/01/27 01:38:34;;;;;;;;;;;;;;;4.50;100.00;102416.75;5030324;28;19946;-61
2023/01/27 01:40:59;;;;;;;;;;;;;;;4.95;91.67;102434.91;5033977;28;19920;-61
2023/01/27 01:43:26;;;;;;;;;;;;;;;4.78;90.73;102427.59;5045212;28;19925;-60
2023/01/27 01:45:53;;;;;;;;;;;;;;;4.74;90.52;102434.38;5048409;28;19912;-61
2023/01/27 01:48:27;;;;;;;;;;;;;;;4.45;93.85;102432.66;5035353;28;19921;-61
2023/01/27 01:50:53;;;;;;;;;;;;;;;3.82;96.54;102436.09;5029779;28;19929;-60
2023/01/27 01:53:20;;;;;;;;;;;;;;;3.97;95.75;102425.59;5040438;28;20036;-61
2023/01/27 01:55:46;;;;;;;;;;;;;;;4.42;94.57;102430.25;5048658;28;19967;-62
2023/01/27 01:58:12;;;;;;;;;;;;;;;4.43;92.64;102430.09;5029515;28;20352;-62
2023/01/27 02:00:37;;;;;;;;;;;;;;;3.81;95.77;102428.09;5038610;28;19928;-62
2023/01/27 02:03:03;;;;;;;;;;;;;;;3.71;97.43;102427.25;5031471;28;19917;-63
2023/01/27 02:05:31;;;;;;;;;;;;;;;3.55;98.92;102436.03;5045653;28;19935;-64
2023/01/27 02:08:00;;;;;;;;;;;;;;;3.59;97.74;102430.13;5049396;28;20010;-61
2023/01/27 02:10:26;;;;;;;;;;;;;;;3.52;99.14;102430.88;5049051;28;20030;-61
2023/01/27 02:12:51;;;;;;;;;;;;;;;3.50;99.60;102432.88;5037773;28;19920;-62
2023/01/27 02:15:16;;;;;;;;;;;;;;;3.54;99.51;102427.00;5044833;28;19921;-61
2023/01/27 02:17:42;;;;;;;;;;;;;;;3.65;99.40;102436.84;5047402;28;19921;-61
2023/01/27 02:20:19;;;;;;;;;;;;;;;3.47;100.00;102431.31;5035261;28;19921;-60
2023/01/27 02:22:50;;;;;;;;;;;;;;;3.61;99.25;102430.00;5040048;28;19928;-61
2023/01/27 02:25:15;;;;;;;;;;;;;;;3.68;99.46;102433.84;5047856;28;20411;-61
2023/01/27 02:27:40;;;;;;;;;;;;;;;3.45;100.00;102444.19;5047533;28;19924;-61
2023/01/27 02:30:06;;;;;;;;;;;;;;;3.48;100.00;102438.44;5046056;28;20262;-61
2023/01/27 02:32:33;;;;;;;;;;;;;;;3.60;100.00;102448.16;5047828;28;19928;-61
2023/01/27 02:34:58;;;;;;;;;;;;;;;3.44;100.00;102447.88;5047575;28;19925;-60
2023/01/27 02:37:24;;;;;;;;;;;;;;;4.12;97.03;102451.28;5046004;28;19963;-61
2023/01/27 02:39:50;;;;;;;;;;;;;;;3.75;97.82;102450.41;5046471;28;19925;-61
2023/01/27 02:42:16;;;;;;;;;;;;;;;3.53;100.00;102451.59;5046595;28;19932;-61
2023/01/27 02:44:41;;;;;;;;;;;;;;;3.49;100.00;102459.16;5068941;22;19925;-61
2023/01/27 02:47:07;;;;;;;;;;;;;;;3.42;100.00;102463.47;5006815;28;19967;-60
2023/01/27 02:49:32;;;;;;;;;;;;;;;3.48;100.00;102457.47;5006116;28;19925;-60
2023/01/27 02:51:57;;;;;;;;;;;;;;;3.84;99.32;102455.81;4991939;28;20934;-60
2023/01/27 02:54:26;;;;;;;;;;;;;;;3.90;96.53;102448.91;5008599;28;20326;-63
2023/01/27 02:56:51;;;;;;;;;;;;;;;3.50;99.31;102460.06;5006901;28;19922;-61
2023/01/27 02:59:16;;;;;;;;;;;;;;;3.37;100.00;102463.91;5008635;28;19921;-61
2023/01/27 03:01:42;;;;;;;;;;;;;;;3.33;100.00;102461.63;5006884;28;20349;-63
2023/01/27 03:04:09;;;;;;;;;;;;;;;4.41;94.55;102451.19;5007660;28;19967;-63
2023/01/27 03:06:34;;;;;;;;;;;;;;;3.69;97.63;102460.00;5007905;28;20434;-60
2023/01/27 03:08:59;;;;;;;;;;;;;;;3.96;95.72;102456.50;5008161;28;19922;-61
2023/01/27 03:14:08;;;;;;;;;;;;;;;3.70;97.53;102461.72;5007008;28;19916;-65
2023/01/27 03:19:18;;;;;;;;;;;;;;;4.23;94.34;102465.72;5007455;28;19928;-61
2023/01/27 03:21:44;;;;;;;;;;;;;;;4.24;95.06;102461.97;5007873;28;20012;-61
2023/01/27 03:24:09;;;;;;;;;;;;;;;3.47;98.78;102466.63;5008116;28;20268;-62
2023/01/27 03:26:37;;;;;;;;;;;;;;;3.85;96.28;102468.41;5004454;28;20423;-62
2023/01/27 03:31:46;;;;;;;;;;;;;;;3.98;96.99;102462.66;5008379;28;19924;-61
2023/01/27 03:34:11;;;;;;;;;;;;;;;3.46;99.00;102481.19;5007739;28;19921;-63
2023/01/27 03:47:32;;;;;;;;;;;;;;;3.81;100.00;102482.44;5005346;28;19933;-60
2023/01/27 03:49:57;;;;;;;;;;;;;;;3.65;99.11;102483.06;5006558;28;20651;-64
2023/01/27 03:52:22;;;;;;;;;;;;;;;4.06;97.24;102486.38;5007458;28;19921;-62
2023/01/27 03:54:47;;;;;;;;;;;;;;;3.36;100.00;102489.34;5006565;28;19976;-61
2023/01/27 03:57:13;;;;;;;;;;;;;;;3.72;100.00;102488.75;5007365;28;19921;-61
2023/01/27 03:59:38;;;;;;;;;;;;;;;3.30;100.00;102489.94;5007389;28;19925;-65
2023/01/27 04:07:35;;;;;;;;;;;;;;;4.13;97.55;102487.50;5007779;28;19929;-61
2023/01/27 04:10:00;;;;;;;;;;;;;;;4.21;96.69;102484.03;5010784;28;19917;-62
2023/01/27 04:12:25;;;;;;;;;;;;;;;4.30;97.53;102483.97;5011218;28;19918;-61
2023/01/27 04:14:51;;;;;;;;;;;;;;;4.20;97.69;102472.28;5010412;28;19925;-61
2023/01/27 04:17:17;;;;;;;;;;;;;;;3.89;98.07;102488.00;5010662;28;19949;-64
2023/01/27 04:19:43;;;;;;;;;;;;;;;4.26;96.28;102487.16;5009801;28;19925;-62
2023/01/27 04:22:09;;;;;;;;;;;;;;;3.75;98.14;102491.16;5011459;28;19976;-65
2023/01/27 04:24:34;;;;;;;;;;;;;;;3.96;99.13;102494.56;5009555;28;20392;-61
2023/01/27 04:27:01;;;;;;;;;;;;;;;3.41;100.00;102488.91;5024288;28;19953;-61
2023/01/27 04:29:28;;;;;;;;;;;;;;;4.12;97.67;102481.22;5011214;28;19926;-61
2023/01/27 04:31:53;;;;;;;;;;;;;;;3.85;97.31;102486.56;5010032;28;19917;-60
2023/01/27 04:34:19;;;;;;;;;;;;;;;4.00;96.38;102482.38;5009593;28;19922;-61
2023/01/27 04:36:46;;;;;;;;;;;;;;;4.20;95.05;102498.63;5009082;28;20025;-61
2023/01/27 04:39:12;;;;;;;;;;;;;;;3.88;97.10;102497.16;5010070;28;19917;-61
2023/01/27 04:41:37;;;;;;;;;;;;;;;4.07;96.45;102497.09;5009952;28;19928;-63
2023/01/27 04:44:03;;;;;;;;;;;;;;;3.46;99.51;102502.94;5009508;28;19921;-61
2023/01/27 04:46:29;;;;;;;;;;;;;;;3.61;99.82;102506.91;5008557;28;19929;-62
2023/01/27 04:48:54;;;;;;;;;;;;;;;3.95;97.62;102511.84;5008211;28;19926;-64
2023/01/27 04:51:19;;;;;;;;;;;;;;;3.63;99.22;102514.91;5009592;28;19925;-62
2023/01/27 04:53:44;;;;;;;;;;;;;;;3.98;98.66;102505.28;5008165;28;19932;-62
2023/01/27 04:56:23;;;;;;;;;;;;;;;3.34;100.00;102520.34;5008385;28;20797;-61
2023/01/27 04:58:49;;;;;;;;;;;;;;;3.21;100.00;102522.50;5009812;28;19928;-60
2023/01/27 05:01:14;;;;;;;;;;;;;;;3.61;100.00;102511.50;5008791;28;19922;-61
2023/01/27 05:03:39;;;;;;;;;;;;;;;3.46;100.00;102521.09;5007983;28;19917;-62
2023/01/27 05:06:04;;;;;;;;;;;;;;;3.80;100.00;102505.16;5009327;28;19928;-61
2023/01/27 05:08:29;;;;;;;;;;;;;;;4.02;97.88;102518.44;5011174;28;20403;-63
2023/01/27 05:10:55;;;;;;;;;;;;;;;4.11;96.14;102503.97;5009733;28;19921;-62
2023/01/27 05:13:20;;;;;;;;;;;;;;;3.98;96.93;102508.84;5014998;28;19928;-61
2023/01/27 05:15:45;;;;;;;;;;;;;;;3.59;98.10;102521.63;5009998;28;20624;-61
2023/01/27 05:18:10;;;;;;;;;;;;;;;3.79;97.55;102525.19;5008589;28;20379;-61
2023/01/27 05:20:35;;;;;;;;;;;;;;;3.67;98.04;102523.66;5009513;28;20275;-61
2023/01/27 05:25:45;;;;;;;;;;;;;;;4.15;95.35;102520.81;5009335;28;19927;-62
2023/01/27 05:28:10;;;;;;;;;;;;;;;3.97;96.55;102528.91;5008730;28;19921;-62
2023/01/27 05:30:36;;;;;;;;;;;;;;;4.01;95.64;102521.31;5009584;28;19933;-63
2023/01/27 05:33:01;;;;;;;;;;;;;;;3.83;96.37;102535.63;5008757;28;19921;-61
2023/01/27 05:35:26;;;;;;;;;;;;;;;3.64;97.13;102536.50;5009459;28;19921;-62
2023/01/27 05:37:51;;;;;;;;;;;;;;;4.07;95.79;102532.44;5009332;28;19991;-63
2023/01/27 05:40:17;;;;;;;;;;;;;;;3.99;96.83;102532.31;5009831;28;20011;-62
2023/01/27 05:42:42;;;;;;;;;;;;;;;3.59;97.06;102548.81;5008675;28;20375;-62
2023/01/27 05:45:07;;;;;;;;;;;;;;;3.97;96.68;102545.22;5009190;28;19925;-63
2023/01/27 05:47:32;;;;;;;;;;;;;;;3.70;96.71;102550.50;5008037;28;20426;-63
2023/01/27 05:49:58;;;;;;;;;;;;;;;3.78;95.63;102546.09;5007385;28;20048;-61
2023/01/27 05:52:23;;;;;;;;;;;;;;;3.84;96.18;102550.94;5009595;28;19936;-62
2023/01/27 05:54:48;;;;;;;;;;;;;;;3.71;96.56;102554.97;5007900;28;20352;-61
2023/01/27 05:57:13;;;;;;;;;;;;;;;4.22;93.83;102540.16;4998953;28;19928;-61
2023/01/27 05:59:38;;;;;;;;;;;;;;;3.84;95.04;102555.50;5017466;28;19928;-64
2023/01/27 06:02:04;;;;;;;;;;;;;;;3.96;94.66;102543.50;5008854;28;19921;-62
2023/01/27 06:04:29;;;;;;;;;;;;;;;3.81;95.02;102553.09;5007415;28;19951;-62
2023/01/27 06:06:54;;;;;;;;;;;;;;;4.05;93.67;102547.19;5008256;28;20383;-62
2023/01/27 06:09:19;;;;;;;;;;;;;;;3.89;95.43;102554.06;5009379;28;19977;-62
2023/01/27 06:11:46;;;;;;;;;;;;;;;4.00;94.60;102558.50;5007847;28;20272;-62
2023/01/27 06:14:11;;;;;;;;;;;;;;;4.04;94.75;102554.47;5007794;28;20326;-61
2023/01/27 06:16:36;;;;;;;;;;;;;;;4.19;94.84;102551.31;5009549;28;19992;-64
2023/01/27 06:19:01;;;;;;;;;;;;;;;4.05;94.89;102553.47;5007773;28;19933;-61
2023/01/27 06:21:26;;;;;;;;;;;;;;;4.02;94.86;102570.09;5008995;28;19917;-61
2023/01/27 06:23:52;;;;;;;;;;;;;;;4.01;95.40;102562.94;5007655;28;20008;-61
2023/01/27 06:26:18;;;;;;;;;;;;;;;4.01;94.53;102571.09;5008753;28;19924;-61
2023/01/27 06:28:43;;;;;;;;;;;;;;;3.60;97.28;102567.69;5007766;28;19921;-63
2023/01/27 06:31:20;;;;;;;;;;;;;;;3.62;97.73;102579.28;5006746;28;19922;-64
2023/01/27 06:33:45;;;;;;;;;;;;;;;3.80;97.56;102573.09;5007493;28;19926;-62
2023/01/27 06:36:11;;;;;;;;;;;;;;;4.33;93.62;102565.31;5008475;28;19925;-62
2023/01/27 06:38:37;;;;;;;;;;;;;;;3.74;95.75;102573.69;5008863;28;19921;-63
2023/01/27 06:41:02;;;;;;;;;;;;;;;3.60;97.56;102572.28;5007777;28;19931;-61
2023/01/27 06:43:27;;;;;;;;;;;;;;;3.80;98.24;102567.66;5008578;28;19929;-62
2023/01/27 06:45:53;;;;;;;;;;;;;;;3.61;96.84;102574.00;5006308;28;19965;-61
2023/01/27 06:48:18;;;;;;;;;;;;;;;3.45;98.67;102573.66;5004441;28;20528;-62
2023/01/27 06:50:43;;;;;;;;;;;;;;;3.85;95.49;102576.25;5006477;28;19921;-61
2023/01/27 06:53:08;;;;;;;;;;;;;;;3.49;98.05;102585.97;5007066;28;19922;-65
2023/01/27 06:55:34;;;;;;;;;;;;;;;3.45;99.40;102585.44;5006359;28;19921;-61
2023/01/27 06:58:02;;;;;;;;;;;;;;;3.51;100.00;102592.16;5006329;28;20016;-63
2023/01/27 07:00:28;;;;;;;;;;;;;;;3.47;99.19;102577.97;5005435;28;20059;-62
2023/01/27 07:02:56;;;;;;;;;;;;;;;3.45;100.00;102585.44;5004131;28;19921;-62
2023/01/27 07:05:21;;;;;;;;;;;;;;;3.50;100.00;102583.13;5006901;28;20294;-61
2023/01/27 07:07:46;;;;;;;;;;;;;;;3.42;100.00;102582.97;5004850;28;20016;-64
2023/01/27 07:10:12;;;;;;;;;;;;;;;3.41;100.00;102583.13;5006891;28;19925;-62
2023/01/27 07:12:38;;;;;;;;;;;;;;;3.48;100.00;102573.41;5004815;28;20342;-61
2023/01/27 07:15:04;;;;;;;;;;;;;;;3.44;100.00;102580.09;5003739;28;20335;-63
2023/01/27 07:17:29;;;;;;;;;;;;;;;3.49;100.00;102591.41;5005522;28;19925;-61
2023/01/27 07:19:54;;;;;;;;;;;;;;;3.44;100.00;102583.69;5005256;28;19925;-61
2023/01/27 07:22:20;;;;;;;;;;;;;;;3.45;100.00;102588.13;5003842;28;20303;-61
2023/01/27 07:24:45;;;;;;;;;;;;;;;3.45;100.00;102590.84;5002505;28;19969;-62
2023/01/27 07:27:10;;;;;;;;;;;;;;;3.49;100.00;102589.53;5001320;28;19922;-62
2023/01/27 07:29:35;;;;;;;;;;;;;;;3.48;100.00;102593.28;5006242;28;19991;-61
2023/01/27 07:32:00;;;;;;;;;;;;;;;3.47;100.00;102591.56;5005450;28;19917;-61
2023/01/27 07:34:26;;;;;;;;;;;;;;;3.48;100.00;102595.13;5004811;28;19925;-61
2023/01/27 07:36:51;;;;;;;;;;;;;;;3.48;100.00;102600.56;5006298;28;19917;-62
2023/01/27 07:39:16;;;;;;;;;;;;;;;3.50;100.00;102598.59;5006358;28;19993;-62
2023/01/27 07:41:42;;;;;;;;;;;;;;;3.50;100.00;102607.59;5004915;28;20016;-61
2023/01/27 07:44:08;;;;;;;;;;;;;;;3.50;100.00;102604.88;5008432;28;19936;-63
2023/01/27 07:46:33;;;;;;;;;;;;;;;3.55;100.00;102604.44;5009447;28;19922;-61
2023/01/27 07:48:59;;;;;;;;;;;;;;;3.50;100.00;102610.31;5009494;28;19957;-61
2023/01/27 07:51:24;;;;;;;;;;;;;;;3.53;100.00;102607.28;5009630;28;19928;-61
2023/01/27 07:53:50;;;;;;;;;;;;;;;3.58;100.00;102607.72;5010140;28;19918;-64
2023/01/27 07:56:15;;;;;;;;;;;;;;;3.59;100.00;102609.44;5010299;28;20422;-62
2023/01/27 07:58:41;;;;;;;;;;;;;;;3.71;100.00;102612.03;5010049;28;19917;-62
2023/01/27 08:01:07;;;;;;;;;;;;;;;3.58;100.00;102612.28;5007403;28;19925;-64
2023/01/27 08:03:32;;;;;;;;;;;;;;;3.58;100.00;102613.16;5008585;28;19932;-63
2023/01/27 08:05:57;;;;;;;;;;;;;;;3.70;99.02;102615.72;5009485;28;19922;-63
2023/01/27 08:08:22;;;;;;;;;;;;;;;3.91;97.10;102613.75;5009619;28;20011;-62
2023/01/27 08:10:50;;;;;;;;;;;;;;;4.29;94.80;102615.56;5008107;28;19921;-63
2023/01/27 08:13:15;;;;;;;;;;;;;;;4.50;93.87;102609.06;5009118;28;20315;-62
2023/01/27 08:15:40;;;;;;;;;;;;;;;4.04;95.44;102617.00;5005876;28;19921;-62
2023/01/27 08:18:05;;;;;;;;;;;;;;;3.78;97.32;102616.75;5011026;28;19918;-62
2023/01/27 08:20:31;;;;;;;;;;;;;;;4.51;92.76;102611.66;5010616;28;19925;-62
2023/01/27 08:22:56;;;;;;;;;;;;;;;3.76;97.11;102617.91;5010753;28;19924;-62
2023/01/27 08:25:22;;;;;;;;;;;;;;;4.56;92.77;102612.06;5011321;28;19968;-64
2023/01/27 08:27:51;;;;;;;;;;;;;;;3.94;95.96;102628.91;5003741;28;19930;-62
2023/01/27 08:30:16;;;;;;;;;;;;;;;3.71;97.55;102634.63;5006670;28;20015;-61
2023/01/27 08:32:41;;;;;;;;;;;;;;;3.66;98.50;102636.91;5006156;28;20593;-63
2023/01/27 08:35:07;;;;;;;;;;;;;;;3.83;96.21;102621.75;5027100;28;20284;-62
2023/01/27 08:37:32;;;;;;;;;;;;;;;4.57;93.04;102618.38;5012266;28;19930;-61
2023/01/27 08:39:57;;;;;;;;;;;;;;;3.83;96.53;102627.19;5010465;28;20581;-62
2023/01/27 08:42:22;;;;;;;;;;;;;;;4.05;96.26;102634.19;5011308;28;20012;-61
2023/01/27 08:44:47;;;;;;;;;;;;;;;3.83;97.55;102644.34;5009182;28;19922;-62
2023/01/27 08:47:13;;;;;;;;;;;;;;;4.20;94.82;102642.75;5011967;28;19921;-62
2023/01/27 08:49:38;;;;;;;;;;;;;;;4.23;94.61;102645.19;5024810;28;19971;-65
2023/01/27 08:52:03;;;;;;;;;;;;;;;4.61;92.94;102645.13;5010468;28;19925;-61
2023/01/27 08:54:28;;;;;;;;;;;;;;;4.36;93.52;102653.94;5010505;28;19917;-61
2023/01/27 08:56:53;;;;;;;;;;;;;;;4.07;93.52;102656.66;5009567;28;20001;-61
2023/01/27 08:59:19;;;;;;;;;;;;;;;4.54;91.99;102664.91;5010084;28;19949;-61
2023/01/27 09:01:44;;;;;;;;;;;;;;;4.41;93.40;102666.09;5007090;28;19921;-64
2023/01/27 09:04:09;;;;;;;;;;;;;;;4.40;91.59;102664.34;5009469;28;20592;-61
2023/01/27 09:06:34;;;;;;;;;;;;;;;3.80;95.33;102665.50;5010129;28;19917;-62
2023/01/27 09:09:08;;;;;;;;;;;;;;;4.07;95.34;102671.13;5009447;28;20301;-61
2023/01/27 09:11:38;;;;;;;;;;;;;;;4.45;91.21;102663.91;5007500;28;20283;-62
2023/01/27 09:14:03;;;;;;;;;;;;;;;4.26;91.23;102666.66;5010182;28;19940;-61
2023/01/27 09:16:29;;;;;;;;;;;;;;;4.48;89.95;102670.94;5010076;28;20396;-60
2023/01/27 09:18:54;;;;;;;;;;;;;;;4.14;90.81;102666.81;5007333;28;19918;-62
2023/01/27 09:21:20;;;;;;;;;;;;;;;4.01;93.54;102665.41;5004992;28;20023;-61
2023/01/27 09:23:47;;;;;;;;;;;;;;;4.07;92.48;102671.13;5009426;28;19921;-63
2023/01/27 09:26:12;;;;;;;;;;;;;;;3.98;93.32;102677.41;5009240;28;19925;-62
2023/01/27 09:28:38;;;;;;;;;;;;;;;4.78;88.56;102661.69;5010126;28;19932;-61
2023/01/27 09:31:03;;;;;;;;;;;;;;;4.06;93.08;102682.16;5009215;28;19921;-61
2023/01/27 09:33:28;;;;;;;;;;;;;;;4.65;90.13;102678.34;5008451;28;19932;-61
2023/01/27 09:36:04;;;;;;;;;;;;;;;4.46;89.89;102679.25;5009096;28;19939;-61
2023/01/27 09:38:31;;;;;;;;;;;;;;;4.80;88.19;102670.56;5008389;28;19979;-61
2023/01/27 09:40:56;;;;;;;;;;;;;;;4.59;87.43;102687.94;5006974;28;19921;-61
2023/01/27 09:43:46;;;;;;;;;;;;;;;4.44;87.86;102686.69;5008778;28;19948;-64
2023/01/27 09:46:17;;;;;;;;;;;;;;;4.79;87.13;102690.63;5007616;28;19928;-62
2023/01/27 09:49:01;;;;;;;;;;;;;;;4.20;89.12;102697.16;5008680;28;20331;-61
2023/01/27 09:51:32;;;;;;;;;;;;;;;4.72;86.74;102692.25;5009544;28;19917;-61
2023/01/27 09:54:05;;;;;;;;;;;;;;;4.32;88.34;102704.19;5008705;28;20089;-61
2023/01/27 09:56:38;;;;;;;;;;;;;;;4.46;88.32;102700.13;5004351;28;20008;-61
2023/01/27 09:59:12;;;;;;;;;;;;;;;4.24;89.76;102706.75;5009837;28;20127;-61
2023/01/27 10:01:44;;;;;;;;;;;;;;;4.41;89.53;102703.31;5009349;28;19921;-61
2023/01/27 10:04:15;;;;;;;;;;;;;;;4.11;89.81;102707.06;5006888;28;19931;-61
2023/01/27 10:06:47;;;;;;;;;;;;;;;4.33;88.88;102705.88;5007046;28;19975;-63
2023/01/27 10:09:21;;;;;;;;;;;;;;;4.46;88.31;102694.69;5009182;28;19921;-61
2023/01/27 10:11:55;;;;;;;;;;;;;;;3.83;91.66;102704.16;4997802;28;19922;-61
2023/01/27 10:14:28;;;;;;;;;;;;;;;3.99;92.15;102700.88;5004346;28;19929;-61
2023/01/27 10:17:19;;;;;;;;;;;;;;;4.25;89.95;102692.13;5004967;28;19926;-62
2023/01/27 10:19:50;;;;;;;;;;;;;;;4.49;89.64;102695.28;5003713;28;20555;-61
2023/01/27 10:22:23;;;;;;;;;;;;;;;4.37;90.42;102693.72;5015865;28;19925;-61
2023/01/27 10:25:07;;;;;;;;;;;;;;;4.62;92.65;102684.94;5013492;28;20366;-61
2023/01/27 10:27:36;;;;;;;;;;;;;;;4.86;91.34;102676.25;4992901;28;19926;-61
2023/01/27 10:30:07;;;;;;;;;;;;;;;5.15;89.80;102681.59;5006728;28;20364;-63
2023/01/27 10:32:37;;;;;;;;;;;;;;;4.80;88.72;102690.47;5004068;28;19931;-62
2023/01/27 10:35:17;;;;;;;;;;;;;;;4.84;88.11;102689.19;5007324;28;20325;-63
2023/01/27 10:37:48;;;;;;;;;;;;;;;4.55;90.63;102694.69;5008132;28;19925;-62
2023/01/27 10:40:16;;;;;;;;;;;;;;;4.54;90.88;102689.41;5008336;28;19933;-62
2023/01/27 10:42:49;;;;;;;;;;;;;;;4.57;89.96;102689.97;5007793;28;20020;-62
2023/01/27 10:45:17;;;;;;;;;;;;;;;5.28;85.67;102685.88;5007054;28;19953;-61
2023/01/27 10:47:52;;;;;;;;;;;;;;;5.24;85.11;102679.00;5005801;28;19999;-61
2023/01/27 10:50:24;;;;;;;;;;;;;;;4.51;89.20;102693.28;5007763;28;20063;-61
2023/01/27 10:52:56;;;;;;;;;;;;;;;4.73;89.36;102689.34;5007711;28;20007;-62
2023/01/27 10:55:25;;;;;;;;;;;;;;;4.92;88.50;102683.00;5008258;28;20612;-61
2023/01/27 10:57:59;;;;;;;;;;;;;;;5.15;85.59;102681.59;5005776;28;20268;-61
2023/01/27 11:00:39;;;;;;;;;;;;;;;5.03;86.55;102681.97;5003722;28;19925;-62
2023/01/27 11:03:23;;;;;;;;;;;;;;;4.29;90.81;102690.84;5006917;28;19918;-62
2023/01/27 11:05:51;;;;;;;;;;;;;;;4.80;88.25;102685.03;5007912;28;19925;-61
2023/01/27 11:08:18;;;;;;;;;;;;;;;4.21;91.33;102690.69;5006668;28;19948;-61
2023/01/27 11:13:30;;;;;;;;;;;;;;;4.80;90.05;102682.31;5008542;28;19932;-63
2023/01/27 11:15:55;;;;;;;;;;;;;;;4.73;89.36;102688.50;5002619;28;19918;-62
2023/01/27 11:18:25;;;;;;;;;;;;;;;4.86;88.38;102686.28;5002376;28;19921;-61
2023/01/27 11:20:56;;;;;;;;;;;;;;;4.55;90.06;102686.50;5005720;28;19975;-63
2023/01/27 11:23:25;;;;;;;;;;;;;;;4.80;88.33;102681.44;5006963;28;21157;-61
2023/01/27 11:26:03;;;;;;;;;;;;;;;4.51;90.38;102671.50;5003569;28;20273;-61
2023/01/27 11:28:41;;;;;;;;;;;;;;;4.75;88.83;102678.31;5007863;28;20020;-62
2023/01/27 11:31:12;;;;;;;;;;;;;;;4.27;90.55;102676.56;5008112;28;19921;-62
2023/01/27 11:33:47;;;;;;;;;;;;;;;4.25;92.05;102675.81;5005121;28;20027;-62
2023/01/27 11:36:12;;;;;;;;;;;;;;;4.08;92.71;102678.28;5006227;28;20012;-63
2023/01/27 11:38:37;;;;;;;;;;;;;;;4.55;90.04;102680.22;5008082;28;20016;-62
2023/01/27 11:41:02;;;;;;;;;;;;;;;4.91;87.46;102673.94;5006742;28;19917;-62
2023/01/27 11:43:28;;;;;;;;;;;;;;;4.67;89.55;102676.34;5006345;28;19925;-61
2023/01/27 11:45:59;;;;;;;;;;;;;;;4.30;90.25;102674.38;5006327;28;19968;-63
2023/01/27 11:48:31;;;;;;;;;;;;;;;4.07;93.00;102675.69;5006561;28;20386;-63
2023/01/27 11:50:56;;;;;;;;;;;;;;;4.16;93.19;102669.41;5003791;28;19926;-62
2023/01/27 11:53:27;;;;;;;;;;;;;;;4.90;87.60;102658.63;5006895;28;19922;-62
2023/01/27 11:55:56;;;;;;;;;;;;;;;4.46;89.01;102665.66;5008572;28;19936;-63
2023/01/27 11:58:23;;;;;;;;;;;;;;;4.26;91.79;102666.66;5007799;28;20260;-62
2023/01/27 12:00:55;;;;;;;;;;;;;;;4.52;90.66;102672.38;5006835;28;19933;-64
2023/01/27 12:03:36;;;;;;;;;;;;;;;4.66;89.27;102659.16;5003311;28;20008;-62
2023/01/27 12:06:04;;;;;;;;;;;;;;;4.69;89.04;102664.28;5006563;28;19921;-63
2023/01/27 12:08:35;;;;;;;;;;;;;;;4.69;89.09;102664.28;5007374;28;20399;-64
2023/01/27 12:11:17;;;;;;;;;;;;;;;4.79;88.19;102666.97;5006628;28;20279;-62
2023/01/27 12:14:02;;;;;;;;;;;;;;;4.82;88.35;102661.25;5006527;28;19963;-62
2023/01/27 12:16:43;;;;;;;;;;;;;;;4.25;91.06;102662.22;5006089;28;19953;-62
2023/01/27 12:19:23;;;;;;;;;;;;;;;4.88;87.54;102657.06;5004598;28;19917;-65
2023/01/27 12:21:51;;;;;;;;;;;;;;;4.47;90.59;102666.50;5006949;28;20358;-64
2023/01/27 12:24:31;;;;;;;;;;;;;;;4.34;90.61;102662.22;5006724;28;20012;-63
2023/01/27 12:26:57;;;;;;;;;;;;;;;4.72;89.27;102648.69;5006709;28;19929;-63
2023/01/27 12:29:34;;;;;;;;;;;;;;;4.40;90.74;102653.47;5007393;28;19925;-62
2023/01/27 12:32:00;;;;;;;;;;;;;;;4.95;87.47;102653.59;5007371;28;19956;-62
2023/01/27 12:34:25;;;;;;;;;;;;;;;4.76;88.15;102650.94;5010730;28;19991;-63
2023/01/27 12:36:50;;;;;;;;;;;;;;;4.45;89.14;102647.59;5010461;28;19917;-65
2023/01/27 12:39:27;;;;;;;;;;;;;;;4.51;88.88;102647.03;5010760;28;19921;-64
2023/01/27 12:41:53;;;;;;;;;;;;;;;4.52;89.49;102645.16;5008537;28;20418;-62
2023/01/27 12:44:21;;;;;;;;;;;;;;;4.54;87.88;102638.56;5010406;28;19921;-62
2023/01/27 12:47:00;;;;;;;;;;;;;;;4.69;87.78;102637.06;5007253;28;19995;-62
2023/01/27 12:49:30;;;;;;;;;;;;;;;4.82;87.44;102633.19;5010768;28;19917;-62
2023/01/27 12:51:55;;;;;;;;;;;;;;;4.92;86.27;102632.13;5009117;28;19921;-63
2023/01/27 12:54:21;;;;;;;;;;;;;;;4.68;88.00;102634.50;5010198;28;19944;-63
2023/01/27 12:56:46;;;;;;;;;;;;;;;5.01;85.13;102630.34;5009920;28;19925;-62
2023/01/27 12:59:14;;;;;;;;;;;;;;;4.91;85.92;102626.81;5009505;28;19929;-63
2023/01/27 13:01:40;;;;;;;;;;;;;;;4.44;89.73;102626.84;5009359;28;19945;-63
2023/01/27 13:04:16;;;;;;;;;;;;;;;4.81;89.00;102623.28;4993080;28;19922;-62
2023/01/27 13:06:43;;;;;;;;;;;;;;;4.55;90.52;102620.34;5004831;28;19931;-63
2023/01/27 13:09:29;;;;;;;;;;;;;;;4.65;91.52;102618.47;5007734;28;19921;-66
2023/01/27 13:11:57;;;;;;;;;;;;;;;4.98;88.46;102624.38;4996038;28;19922;-62
2023/01/27 13:14:22;;;;;;;;;;;;;;;4.55;90.49;102618.50;5002540;28;19929;-63
2023/01/27 13:16:55;;;;;;;;;;;;;;;4.75;91.20;102618.44;5002547;28;20402;-64
2023/01/27 13:19:25;;;;;;;;;;;;;;;4.92;87.14;102620.38;5005899;28;19922;-64
2023/01/27 13:21:52;;;;;;;;;;;;;;;4.61;90.79;102617.03;5001439;28;19941;-63
2023/01/27 13:24:21;;;;;;;;;;;;;;;5.32;86.32;102621.88;5005188;28;19979;-64